createdAt,value
2016-02-02T00:00:23.763Z,0
2016-02-02T00:01:23.750Z,0
2016-02-02T00:02:23.722Z,0
2016-02-02T00:03:23.709Z,0
2016-02-02T00:04:23.681Z,0
2016-02-02T00:05:23.653Z,0
2016-02-02T00:06:23.625Z,0
2016-02-02T00:07:23.612Z,0
2016-02-02T00:08:23.584Z,0
2016-02-02T00:09:23.570Z,0
2016-02-02T00:10:23.542Z,0
2016-02-02T00:11:23.516Z,0
2016-02-02T00:12:23.503Z,0
2016-02-02T00:13:23.475Z,0
2016-02-02T00:14:23.445Z,0
2016-02-02T00:15:23.418Z,0
2016-02-02T00:16:23.405Z,0
2016-02-02T00:17:23.393Z,0
2016-02-02T00:18:23.365Z,0
2016-02-02T00:19:23.335Z,0
2016-02-02T00:20:23.310Z,0
2016-02-02T00:21:23.297Z,0
2016-02-02T00:22:23.285Z,0
2016-02-02T00:23:23.243Z,0
2016-02-02T00:24:23.215Z,0
2016-02-02T00:25:23.217Z,0
2016-02-02T00:26:23.174Z,0
2016-02-02T00:27:23.161Z,0
2016-02-02T00:28:23.148Z,0
2016-02-02T00:29:23.120Z,0
2016-02-02T00:30:23.107Z,0
2016-02-02T00:31:23.064Z,0
2016-02-02T00:32:23.035Z,0
2016-02-02T00:33:23.024Z,0
2016-02-02T00:34:23.011Z,0
2016-02-02T00:35:22.997Z,0
2016-02-02T00:36:22.954Z,0
2016-02-02T00:37:22.942Z,0
2016-02-02T00:38:22.914Z,0
2016-02-02T00:39:22.900Z,0
2016-02-02T00:40:22.871Z,0
2016-02-02T00:41:22.859Z,0
2016-02-02T00:42:22.816Z,0
2016-02-02T00:43:22.803Z,0
2016-02-02T00:44:22.790Z,0
2016-02-02T00:45:22.746Z,0
2016-02-02T00:46:22.733Z,0
2016-02-02T00:47:22.705Z,0
2016-02-02T00:48:22.693Z,0
2016-02-02T00:49:22.664Z,0
2016-02-02T00:50:22.652Z,0
2016-02-02T00:51:22.622Z,0
2016-02-02T00:52:22.610Z,0
2016-02-02T00:53:22.583Z,0
2016-02-02T00:54:22.554Z,0
2016-02-02T00:55:22.525Z,0
2016-02-02T00:56:22.512Z,0
2016-02-02T00:57:22.483Z,0
2016-02-02T00:58:22.456Z,0
2016-02-02T00:59:22.443Z,0
2016-02-02T01:00:22.405Z,0
2016-02-02T01:01:22.393Z,0
2016-02-02T01:02:22.364Z,0
2016-02-02T01:03:22.352Z,0
2016-02-02T01:04:22.338Z,0
2016-02-02T01:05:22.341Z,0
2016-02-02T01:06:22.313Z,0
2016-02-02T01:07:22.253Z,0
2016-02-02T01:08:22.226Z,0
2016-02-02T01:09:22.213Z,0
2016-02-02T01:10:22.185Z,0
2016-02-02T01:11:22.172Z,0
2016-02-02T01:12:22.143Z,0
2016-02-02T01:13:22.131Z,0
2016-02-02T01:14:22.101Z,0
2016-02-02T01:15:22.073Z,0
2016-02-02T01:16:22.045Z,0
2016-02-02T01:17:22.017Z,0
2016-02-02T01:18:22.020Z,0
2016-02-02T01:19:21.991Z,0
2016-02-02T01:20:21.962Z,0
2016-02-02T01:21:21.934Z,0
2016-02-02T01:22:21.921Z,0
2016-02-02T01:23:21.892Z,0
2016-02-02T01:24:21.864Z,0
2016-02-02T01:25:21.867Z,0
2016-02-02T01:26:21.823Z,0
2016-02-02T01:27:21.809Z,0
2016-02-02T01:28:21.781Z,0
2016-02-02T01:29:21.746Z,0
2016-02-02T01:30:21.736Z,0
2016-02-02T01:31:21.707Z,0
2016-02-02T01:32:21.693Z,0
2016-02-02T01:33:21.682Z,0
2016-02-02T01:34:21.668Z,0
2016-02-02T01:35:21.625Z,0
2016-02-02T01:36:21.597Z,0
2016-02-02T01:37:21.570Z,0
2016-02-02T01:38:21.556Z,0
2016-02-02T01:39:21.529Z,0
2016-02-02T01:40:21.516Z,0
2016-02-02T01:41:21.504Z,0
2016-02-02T01:42:21.491Z,0
2016-02-02T01:43:21.446Z,0
2016-02-02T01:44:21.419Z,0
2016-02-02T01:45:21.406Z,0
2016-02-02T01:46:21.394Z,0
2016-02-02T01:47:21.349Z,0
2016-02-02T01:48:21.319Z,0
2016-02-02T01:49:21.311Z,0
2016-02-02T01:50:21.281Z,0
2016-02-02T01:51:21.272Z,0
2016-02-02T01:52:21.243Z,0
2016-02-02T01:53:21.215Z,0
2016-02-02T01:54:21.202Z,0
2016-02-02T01:55:21.172Z,0
2016-02-02T01:56:21.163Z,0
2016-02-02T01:57:21.119Z,0
2016-02-02T01:58:21.106Z,0
2016-02-02T01:59:21.078Z,0
2016-02-02T02:00:21.066Z,0
2016-02-02T02:01:21.038Z,0
2016-02-02T02:02:21.024Z,0
2016-02-02T02:03:20.996Z,0
2016-02-02T02:04:20.984Z,0
2016-02-02T02:05:20.942Z,0
2016-02-02T02:06:20.928Z,0
2016-02-02T02:07:20.931Z,0
2016-02-02T02:08:20.887Z,0
2016-02-02T02:09:20.874Z,0
2016-02-02T02:10:20.831Z,0
2016-02-02T02:11:20.817Z,0
2016-02-02T02:12:20.789Z,0
2016-02-02T02:13:20.760Z,0
2016-02-02T02:14:20.749Z,0
2016-02-02T02:15:20.720Z,0
2016-02-02T02:16:20.707Z,0
2016-02-02T02:17:20.717Z,0
2016-02-02T02:18:20.657Z,0
2016-02-02T02:19:20.644Z,0
2016-02-02T02:20:20.614Z,0
2016-02-02T02:21:20.572Z,0
2016-02-02T02:22:20.575Z,0
2016-02-02T02:23:20.546Z,0
2016-02-02T02:24:20.517Z,0
2016-02-02T02:25:20.490Z,0
2016-02-02T02:26:20.480Z,0
2016-02-02T02:27:20.435Z,0
2016-02-02T02:28:20.423Z,0
2016-02-02T02:29:20.412Z,0
2016-02-02T02:30:20.368Z,0
2016-02-02T02:31:20.354Z,0
2016-02-02T02:32:20.326Z,0
2016-02-02T02:33:20.313Z,0
2016-02-02T02:34:20.301Z,0
2016-02-02T02:35:20.256Z,0
2016-02-02T02:36:20.243Z,0
2016-02-02T02:37:20.215Z,0
2016-02-02T02:38:20.202Z,0
2016-02-02T02:39:20.173Z,0
2016-02-02T02:40:20.144Z,0
2016-02-02T02:41:20.147Z,0
2016-02-02T02:42:20.104Z,0
2016-02-02T02:43:20.076Z,0
2016-02-02T02:44:20.047Z,0
2016-02-02T02:45:20.051Z,0
2016-02-02T02:46:20.053Z,0
2016-02-02T02:47:19.995Z,0
2016-02-02T02:48:19.982Z,0
2016-02-02T02:49:19.939Z,0
2016-02-02T02:50:19.973Z,0
2016-02-02T02:51:19.912Z,0
2016-02-02T02:52:19.901Z,0
2016-02-02T02:53:19.841Z,0
2016-02-02T02:54:19.844Z,0
2016-02-02T02:55:19.799Z,0
2016-02-02T02:56:19.775Z,0
2016-02-02T02:57:19.761Z,0
2016-02-02T02:58:19.749Z,0
2016-02-02T02:59:19.725Z,0
2016-02-02T03:00:19.743Z,0
2016-02-02T03:01:19.683Z,0
2016-02-02T03:02:19.640Z,0
2016-02-02T03:03:19.627Z,0
2016-02-02T03:04:19.618Z,0
2016-02-02T03:05:19.573Z,0
2016-02-02T03:06:19.562Z,0
2016-02-02T03:07:19.549Z,0
2016-02-02T03:08:19.505Z,0
2016-02-02T03:09:19.492Z,0
2016-02-02T03:10:19.463Z,0
2016-02-02T03:11:19.451Z,0
2016-02-02T03:12:19.440Z,0
2016-02-02T03:13:19.395Z,0
2016-02-02T03:14:19.384Z,0
2016-02-02T03:15:19.358Z,0
2016-02-02T03:16:19.329Z,0
2016-02-02T03:17:19.316Z,0
2016-02-02T03:18:19.304Z,0
2016-02-02T03:19:19.260Z,0
2016-02-02T03:20:19.231Z,0
2016-02-02T03:21:19.219Z,0
2016-02-02T03:22:19.205Z,0
2016-02-02T03:23:19.037Z,0
2016-02-02T03:24:19.168Z,0
2016-02-02T03:25:19.124Z,0
2016-02-02T03:26:19.127Z,0
2016-02-02T03:27:19.084Z,0
2016-02-02T03:28:19.072Z,0
2016-02-02T03:29:19.046Z,0
2016-02-02T03:30:19.041Z,0
2016-02-02T03:31:19.028Z,0
2016-02-02T03:32:18.968Z,0
2016-02-02T03:33:18.941Z,0
2016-02-02T03:34:18.929Z,0
2016-02-02T03:35:18.916Z,0
2016-02-02T03:36:18.902Z,0
2016-02-02T03:37:18.890Z,0
2016-02-02T03:38:18.831Z,0
2016-02-02T03:39:18.819Z,0
2016-02-02T03:40:18.789Z,0
2016-02-02T03:41:18.776Z,0
2016-02-02T03:42:18.748Z,0
2016-02-02T03:43:18.718Z,0
2016-02-02T03:44:18.694Z,0
2016-02-02T03:45:18.654Z,0
2016-02-02T03:46:18.614Z,0
2016-02-02T03:47:18.590Z,0
2016-02-02T03:48:18.552Z,0
2016-02-02T03:49:18.536Z,0
2016-02-02T03:50:18.505Z,0
2016-02-02T03:51:18.489Z,0
2016-02-02T03:52:18.456Z,0
2016-02-02T03:53:18.268Z,0
2016-02-02T03:54:18.395Z,0
2016-02-02T03:55:18.365Z,0
2016-02-02T03:56:18.350Z,0
2016-02-02T03:57:18.320Z,0
2016-02-02T03:58:18.306Z,0
2016-02-02T03:59:18.293Z,0
2016-02-02T04:00:18.249Z,0
2016-02-02T04:01:18.234Z,0
2016-02-02T04:02:18.205Z,0
2016-02-02T04:03:18.176Z,0
2016-02-02T04:04:18.182Z,0
2016-02-02T04:05:18.138Z,0
2016-02-02T04:06:18.126Z,0
2016-02-02T04:07:18.083Z,0
2016-02-02T04:08:18.069Z,0
2016-02-02T04:09:18.057Z,0
2016-02-02T04:10:18.027Z,0
2016-02-02T04:11:18.000Z,0
2016-02-02T04:12:18.003Z,0
2016-02-02T04:13:17.974Z,0
2016-02-02T04:14:17.946Z,0
2016-02-02T04:15:17.903Z,0
2016-02-02T04:16:17.890Z,0
2016-02-02T04:17:17.874Z,0
2016-02-02T04:18:17.845Z,0
2016-02-02T04:19:17.817Z,0
2016-02-02T04:20:17.821Z,0
2016-02-02T04:21:17.776Z,0
2016-02-02T04:22:17.747Z,0
2016-02-02T04:23:17.734Z,0
2016-02-02T04:24:17.707Z,0
2016-02-02T04:25:17.679Z,0
2016-02-02T04:26:17.681Z,0
2016-02-02T04:27:17.638Z,0
2016-02-02T04:28:17.469Z,0
2016-02-02T04:29:17.613Z,0
2016-02-02T04:30:17.569Z,0
2016-02-02T04:31:17.556Z,0
2016-02-02T04:32:17.529Z,0
2016-02-02T04:33:17.531Z,0
2016-02-02T04:34:17.487Z,0
2016-02-02T04:35:17.459Z,0
2016-02-02T04:36:17.446Z,0
2016-02-02T04:37:17.418Z,0
2016-02-02T04:38:17.405Z,0
2016-02-02T04:39:17.376Z,0
2016-02-02T04:40:17.348Z,0
2016-02-02T04:41:17.335Z,0
2016-02-02T04:42:17.323Z,0
2016-02-02T04:43:17.279Z,0
2016-02-02T04:44:17.266Z,0
2016-02-02T04:45:17.253Z,0
2016-02-02T04:46:17.224Z,0
2016-02-02T04:47:17.196Z,0
2016-02-02T04:48:17.167Z,0
2016-02-02T04:49:17.139Z,0
2016-02-02T04:50:17.126Z,0
2016-02-02T04:51:17.129Z,0
2016-02-02T04:52:17.085Z,0
2016-02-02T04:53:17.057Z,0
2016-02-02T04:54:17.044Z,0
2016-02-02T04:55:17.015Z,0
2016-02-02T04:56:16.986Z,0
2016-02-02T04:57:16.975Z,0
2016-02-02T04:58:16.946Z,0
2016-02-02T04:59:16.933Z,0
2016-02-02T05:00:16.905Z,0
2016-02-02T05:01:16.878Z,0
2016-02-02T05:02:16.865Z,0
2016-02-02T05:03:16.852Z,0
2016-02-02T05:04:16.823Z,0
2016-02-02T05:05:16.796Z,0
2016-02-02T05:06:16.766Z,0
2016-02-02T05:07:16.770Z,0
2016-02-02T05:08:16.758Z,0
2016-02-02T05:09:16.714Z,0
2016-02-02T05:10:16.685Z,0
2016-02-02T05:11:16.659Z,0
2016-02-02T05:12:16.647Z,0
2016-02-02T05:13:16.617Z,0
2016-02-02T05:14:16.593Z,0
2016-02-02T05:15:16.579Z,0
2016-02-02T05:16:16.551Z,0
2016-02-02T05:17:16.523Z,0
2016-02-02T05:18:16.510Z,0
2016-02-02T05:19:16.481Z,0
2016-02-02T05:20:16.467Z,0
2016-02-02T05:21:16.455Z,0
2016-02-02T05:22:16.428Z,0
2016-02-02T05:23:16.399Z,0
2016-02-02T05:24:16.370Z,0
2016-02-02T05:25:16.342Z,0
2016-02-02T05:26:16.329Z,0
2016-02-02T05:27:16.316Z,0
2016-02-02T05:28:16.304Z,0
2016-02-02T05:29:16.309Z,0
2016-02-02T05:30:16.081Z,0
2016-02-02T05:31:16.224Z,0
2016-02-02T05:32:16.196Z,0
2016-02-02T05:33:16.198Z,0
2016-02-02T05:34:16.139Z,0
2016-02-02T05:35:16.126Z,0
2016-02-02T05:36:16.097Z,0
2016-02-02T05:37:16.100Z,0
2016-02-02T05:38:16.072Z,0
2016-02-02T05:39:16.056Z,0
2016-02-02T05:40:16.012Z,0
2016-02-02T05:41:15.998Z,0
2016-02-02T05:42:16.001Z,0
2016-02-02T05:43:15.957Z,0
2016-02-02T05:44:15.933Z,0
2016-02-02T05:45:15.920Z,0
2016-02-02T05:46:15.891Z,0
2016-02-02T05:47:15.863Z,0
2016-02-02T05:48:15.850Z,0
2016-02-02T05:49:15.821Z,0
2016-02-02T05:50:15.809Z,0
2016-02-02T05:51:15.780Z,0
2016-02-02T05:52:15.767Z,0
2016-02-02T05:53:15.740Z,0
2016-02-02T05:54:15.712Z,0
2016-02-02T05:55:15.698Z,0
2016-02-02T05:56:15.670Z,0
2016-02-02T05:57:15.641Z,0
2016-02-02T05:58:15.628Z,0
2016-02-02T05:59:15.631Z,0
2016-02-02T06:00:15.586Z,0
2016-02-02T06:01:15.540Z,0
2016-02-02T06:02:15.528Z,0
2016-02-02T06:03:15.532Z,0
2016-02-02T06:04:15.487Z,0
2016-02-02T06:05:15.459Z,0
2016-02-02T06:06:15.445Z,0
2016-02-02T06:07:15.465Z,0
2016-02-02T06:08:15.420Z,0
2016-02-02T06:09:15.391Z,0
2016-02-02T06:10:15.348Z,0
2016-02-02T06:11:15.335Z,0
2016-02-02T06:12:15.322Z,0
2016-02-02T06:13:15.293Z,0
2016-02-02T06:14:15.265Z,0
2016-02-02T06:15:15.255Z,0
2016-02-02T06:16:15.226Z,0
2016-02-02T06:17:15.198Z,0
2016-02-02T06:18:15.201Z,0
2016-02-02T06:19:15.173Z,0
2016-02-02T06:20:15.130Z,0
2016-02-02T06:21:15.117Z,0
2016-02-02T06:22:15.104Z,0
2016-02-02T06:23:15.107Z,0
2016-02-02T06:24:15.048Z,0
2016-02-02T06:25:15.019Z,0
2016-02-02T06:26:14.994Z,0
2016-02-02T06:27:14.981Z,0
2016-02-02T06:28:14.953Z,0
2016-02-02T06:29:14.924Z,0
2016-02-02T06:30:14.927Z,0
2016-02-02T06:31:14.907Z,0
2016-02-02T06:32:14.880Z,0
2016-02-02T06:33:14.835Z,0
2016-02-02T06:34:14.823Z,0
2016-02-02T06:35:14.793Z,0
2016-02-02T06:36:14.782Z,4
2016-02-02T06:37:14.754Z,4
2016-02-02T06:38:14.741Z,4
2016-02-02T06:39:14.712Z,4
2016-02-02T06:40:14.683Z,4
2016-02-02T06:41:14.671Z,4
2016-02-02T06:42:14.642Z,4
2016-02-02T06:43:14.613Z,8
2016-02-02T06:44:14.601Z,8
2016-02-02T06:45:14.572Z,12
2016-02-02T06:46:14.543Z,16
2016-02-02T06:47:14.531Z,20
2016-02-02T06:48:14.501Z,20
2016-02-02T06:49:14.490Z,32
2016-02-02T06:50:14.507Z,36
2016-02-02T06:51:14.431Z,44
2016-02-02T06:52:14.419Z,52
2016-02-02T06:53:14.392Z,56
2016-02-02T06:54:14.394Z,60
2016-02-02T06:55:14.349Z,76
2016-02-02T06:56:14.321Z,88
2016-02-02T06:57:14.309Z,100
2016-02-02T06:58:14.298Z,112
2016-02-02T06:59:14.253Z,120
2016-02-02T07:00:14.240Z,132
2016-02-02T07:01:14.231Z,152
2016-02-02T07:02:14.186Z,180
2016-02-02T07:03:14.173Z,196
2016-02-02T07:04:14.159Z,216
2016-02-02T07:05:14.162Z,256
2016-02-02T07:06:14.119Z,272
2016-02-02T07:07:14.075Z,288
2016-02-02T07:08:14.062Z,304
2016-02-02T07:09:14.050Z,320
2016-02-02T07:10:14.021Z,340
2016-02-02T07:11:13.993Z,388
2016-02-02T07:12:13.964Z,408
2016-02-02T07:13:13.956Z,432
2016-02-02T07:14:13.959Z,464
2016-02-02T07:15:13.898Z,488
2016-02-02T07:16:13.870Z,520
2016-02-02T07:17:13.888Z,588
2016-02-02T07:18:13.846Z,652
2016-02-02T07:19:13.832Z,712
2016-02-02T07:20:13.788Z,760
2016-02-02T07:21:13.764Z,780
2016-02-02T07:22:13.752Z,700
2016-02-02T07:23:13.723Z,776
2016-02-02T07:24:13.711Z,848
2016-02-02T07:25:13.681Z,872
2016-02-02T07:26:13.652Z,896
2016-02-02T07:27:13.621Z,912
2016-02-02T07:28:13.608Z,968
2016-02-02T07:29:13.612Z,1032
2016-02-02T07:30:13.583Z,1100
2016-02-02T07:31:13.405Z,1152
2016-02-02T07:32:13.626Z,1192
2016-02-02T07:33:16.198Z,1244
2016-02-02T07:34:23.327Z,1252
2016-02-02T07:35:14.118Z,1264
2016-02-02T07:36:13.418Z,1328
2016-02-02T07:37:13.483Z,1420
2016-02-02T07:38:13.376Z,1460
2016-02-02T07:39:13.364Z,1456
2016-02-02T07:40:13.341Z,1432
2016-02-02T07:41:13.313Z,1460
2016-02-02T07:42:13.301Z,1512
2016-02-02T07:43:13.272Z,1504
2016-02-02T07:44:13.260Z,1456
2016-02-02T07:45:13.215Z,1376
2016-02-02T07:46:14.140Z,1256
2016-02-02T07:47:13.173Z,1224
2016-02-02T07:48:13.147Z,1248
2016-02-02T07:49:13.134Z,1304
2016-02-02T07:50:13.105Z,1308
2016-02-02T07:51:13.112Z,1280
2016-02-02T07:52:12.911Z,1268
2016-02-02T07:53:13.054Z,1268
2016-02-02T07:54:13.041Z,1252
2016-02-02T07:55:13.002Z,1220
2016-02-02T07:56:13.363Z,1220
2016-02-02T07:57:12.960Z,1248
2016-02-02T07:58:12.931Z,1268
2016-02-02T07:59:12.935Z,1268
2016-02-02T08:00:12.892Z,1248
2016-02-02T08:01:12.863Z,1296
2016-02-02T08:02:12.866Z,1388
2016-02-02T08:03:12.822Z,1416
2016-02-02T08:04:12.803Z,1244
2016-02-02T08:05:12.779Z,1000
2016-02-02T08:06:12.749Z,932
2016-02-02T08:07:12.740Z,944
2016-02-02T08:08:12.710Z,1060
2016-02-02T08:09:12.697Z,1136
2016-02-02T08:10:12.684Z,1116
2016-02-02T08:11:12.640Z,1152
2016-02-02T08:12:12.628Z,1116
2016-02-02T08:13:12.614Z,1296
2016-02-02T08:14:12.562Z,1568
2016-02-02T08:15:12.554Z,1892
2016-02-02T08:16:12.526Z,2028
2016-02-02T08:17:12.498Z,2088
2016-02-02T08:18:12.485Z,2476
2016-02-02T08:19:12.456Z,2700
2016-02-02T08:20:12.428Z,2572
2016-02-02T08:21:12.418Z,2672
2016-02-02T08:22:12.562Z,2820
2016-02-02T08:23:12.376Z,2656
2016-02-02T08:24:12.348Z,2896
2016-02-02T08:25:12.320Z,3384
2016-02-02T08:26:12.323Z,3332
2016-02-02T08:27:12.279Z,3248
2016-02-02T08:28:12.268Z,3204
2016-02-02T08:29:12.239Z,3484
2016-02-02T08:30:12.215Z,2956
2016-02-02T08:31:12.202Z,2692
2016-02-02T08:32:12.188Z,2492
2016-02-02T08:33:12.145Z,2420
2016-02-02T08:34:12.132Z,2636
2016-02-02T08:35:12.104Z,2744
2016-02-02T08:36:12.074Z,2772
2016-02-02T08:37:12.046Z,2728
2016-02-02T08:38:12.034Z,2848
2016-02-02T08:39:12.005Z,2660
2016-02-02T08:40:11.976Z,2448
2016-02-02T08:41:11.995Z,2616
2016-02-02T08:42:11.936Z,2704
2016-02-02T08:43:11.923Z,2592
2016-02-02T08:44:11.894Z,2520
2016-02-02T08:45:11.882Z,2888
2016-02-02T08:46:11.852Z,3076
2016-02-02T08:47:11.843Z,3244
2016-02-02T08:48:11.812Z,3472
2016-02-02T08:49:11.783Z,3652
2016-02-02T08:50:11.754Z,4000
2016-02-02T08:51:11.759Z,4172
2016-02-02T08:52:11.715Z,4808
2016-02-02T08:53:11.702Z,5412
2016-02-02T08:54:11.517Z,5648
2016-02-02T08:55:11.644Z,5840
2016-02-02T08:56:11.621Z,5360
2016-02-02T08:57:11.607Z,5788
2016-02-02T08:58:11.570Z,6420
2016-02-02T08:59:11.556Z,6536
2016-02-02T09:00:11.528Z,5696
2016-02-02T09:01:11.500Z,5400
2016-02-02T09:02:11.534Z,5300
2016-02-02T09:03:11.459Z,5136
2016-02-02T09:04:11.431Z,5904
2016-02-02T09:05:11.417Z,7360
2016-02-02T09:06:11.421Z,7280
2016-02-02T09:07:11.376Z,7692
2016-02-02T09:08:11.352Z,7220
2016-02-02T09:09:11.323Z,6024
2016-02-02T09:10:11.294Z,5504
2016-02-02T09:11:11.266Z,5580
2016-02-02T09:12:11.269Z,7288
2016-02-02T09:13:11.226Z,7856
2016-02-02T09:14:11.215Z,7368
2016-02-02T09:15:11.202Z,6972
2016-02-02T09:16:11.157Z,5976
2016-02-02T09:17:11.145Z,4852
2016-02-02T09:18:11.117Z,4744
2016-02-02T09:19:11.104Z,5488
2016-02-02T09:20:11.065Z,5656
2016-02-02T09:21:11.084Z,4920
2016-02-02T09:22:11.070Z,4672
2016-02-02T09:23:10.995Z,4592
2016-02-02T09:24:10.982Z,5480
2016-02-02T09:25:11.001Z,6068
2016-02-02T09:26:10.941Z,7028
2016-02-02T09:27:10.759Z,8076
2016-02-02T09:28:10.903Z,8324
2016-02-02T09:29:10.858Z,8576
2016-02-02T09:30:10.845Z,7728
2016-02-02T09:31:10.817Z,6212
2016-02-02T09:32:10.788Z,5040
2016-02-02T09:33:10.775Z,4652
2016-02-02T09:34:10.747Z,4504
2016-02-02T09:35:10.719Z,4760
2016-02-02T09:36:10.722Z,4408
2016-02-02T09:37:10.678Z,4020
2016-02-02T09:38:10.682Z,3828
2016-02-02T09:39:10.637Z,3712
2016-02-02T09:40:10.609Z,4216
2016-02-02T09:41:10.595Z,4476
2016-02-02T09:42:10.551Z,4676
2016-02-02T09:43:10.554Z,5912
2016-02-02T09:44:10.526Z,6768
2016-02-02T09:45:10.497Z,6756
2016-02-02T09:46:10.484Z,5804
2016-02-02T09:47:10.456Z,5652
2016-02-02T09:48:10.427Z,6724
2016-02-02T09:49:10.398Z,7580
2016-02-02T09:50:10.402Z,7608
2016-02-02T09:51:10.359Z,7216
2016-02-02T09:52:10.346Z,6644
2016-02-02T09:53:10.302Z,6384
2016-02-02T09:54:10.288Z,6548
2016-02-02T09:55:10.276Z,6460
2016-02-02T09:56:10.252Z,6744
2016-02-02T09:57:10.224Z,7024
2016-02-02T09:58:10.632Z,6996
2016-02-02T09:59:10.822Z,7240
2016-02-02T10:00:10.513Z,7908
2016-02-02T10:01:10.563Z,8312
2016-02-02T10:02:10.397Z,7564
2016-02-02T10:03:10.400Z,7772
2016-02-02T10:04:10.092Z,7360
2016-02-02T10:05:10.031Z,6608
2016-02-02T10:06:10.081Z,6316
2016-02-02T10:07:10.005Z,6544
2016-02-02T10:08:09.977Z,6516
2016-02-02T10:09:10.199Z,6308
2016-02-02T10:10:10.249Z,7108
2016-02-02T10:11:10.470Z,8452
2016-02-02T10:12:09.926Z,10176
2016-02-02T10:13:09.850Z,10976
2016-02-02T10:14:09.823Z,11012
2016-02-02T10:15:09.809Z,10032
2016-02-02T10:16:09.780Z,7800
2016-02-02T10:17:09.767Z,6860
2016-02-02T10:18:09.739Z,6148
2016-02-02T10:19:09.742Z,5628
2016-02-02T10:20:09.697Z,7052
2016-02-02T10:21:09.669Z,9520
2016-02-02T10:22:09.640Z,11380
2016-02-02T10:23:09.627Z,12576
2016-02-02T10:24:09.599Z,12380
2016-02-02T10:25:09.586Z,10292
2016-02-02T10:26:09.557Z,8308
2016-02-02T10:27:09.533Z,7568
2016-02-02T10:28:09.504Z,6388
2016-02-02T10:29:09.492Z,5876
2016-02-02T10:30:09.462Z,5916
2016-02-02T10:31:09.450Z,6136
2016-02-02T10:32:09.425Z,6264
2016-02-02T10:33:09.428Z,6208
2016-02-02T10:34:09.414Z,5916
2016-02-02T10:35:09.349Z,6348
2016-02-02T10:36:09.337Z,6608
2016-02-02T10:37:09.309Z,6616
2016-02-02T10:38:09.280Z,6840
2016-02-02T10:39:09.267Z,6588
2016-02-02T10:40:09.240Z,6304
2016-02-02T10:41:09.242Z,6492
2016-02-02T10:42:09.214Z,6916
2016-02-02T10:43:09.185Z,7076
2016-02-02T10:44:09.157Z,7448
2016-02-02T10:45:09.128Z,7328
2016-02-02T10:46:09.210Z,7404
2016-02-02T10:47:09.088Z,8316
2016-02-02T10:48:09.074Z,8500
2016-02-02T10:49:09.046Z,7592
2016-02-02T10:50:09.018Z,7044
2016-02-02T10:51:09.005Z,6788
2016-02-02T10:52:08.976Z,6296
2016-02-02T10:53:08.947Z,6156
2016-02-02T10:54:08.919Z,5828
2016-02-02T10:55:08.922Z,5444
2016-02-02T10:56:08.877Z,5412
2016-02-02T10:57:08.868Z,5596
2016-02-02T10:58:08.842Z,5812
2016-02-02T10:59:08.814Z,6000
2016-02-02T11:00:08.785Z,6032
2016-02-02T11:01:08.756Z,6856
2016-02-02T11:02:08.744Z,8788
2016-02-02T11:03:08.761Z,9340
2016-02-02T11:04:08.686Z,8912
2016-02-02T11:05:08.674Z,8536
2016-02-02T11:06:08.644Z,8384
2016-02-02T11:07:08.632Z,8484
2016-02-02T11:08:08.587Z,8836
2016-02-02T11:09:08.575Z,8996
2016-02-02T11:10:08.551Z,8656
2016-02-02T11:11:08.648Z,7940
2016-02-02T11:12:08.509Z,7836
2016-02-02T11:13:08.512Z,9020
2016-02-02T11:14:08.468Z,10024
2016-02-02T11:15:08.441Z,9748
2016-02-02T11:16:08.427Z,9496
2016-02-02T11:17:08.399Z,9696
2016-02-02T11:18:08.372Z,9068
2016-02-02T11:19:08.343Z,8188
2016-02-02T11:20:08.314Z,8488
2016-02-02T11:21:08.301Z,9220
2016-02-02T11:22:08.291Z,9384
2016-02-02T11:23:08.263Z,8812
2016-02-02T11:24:08.234Z,8348
2016-02-02T11:25:08.221Z,8272
2016-02-02T11:26:08.193Z,8576
2016-02-02T11:27:08.165Z,8680
2016-02-02T11:28:08.144Z,8644
2016-02-02T11:29:08.146Z,8876
2016-02-02T11:30:08.101Z,9288
2016-02-02T11:31:08.089Z,9336
2016-02-02T11:32:08.060Z,9428
2016-02-02T11:33:08.032Z,9800
2016-02-02T11:34:08.005Z,9964
2016-02-02T11:35:07.992Z,10744
2016-02-02T11:36:07.979Z,10716
2016-02-02T11:37:07.951Z,9840
2016-02-02T11:38:08.047Z,8244
2016-02-02T11:39:07.893Z,7556
2016-02-02T11:40:07.880Z,7640
2016-02-02T11:41:07.854Z,7948
2016-02-02T11:42:07.825Z,8104
2016-02-02T11:43:07.797Z,8108
2016-02-02T11:44:07.784Z,7712
2016-02-02T11:45:07.775Z,7372
2016-02-02T11:46:07.731Z,7472
2016-02-02T11:47:07.717Z,7480
2016-02-02T11:48:07.737Z,6840
2016-02-02T11:49:07.662Z,6272
2016-02-02T11:50:07.665Z,6392
2016-02-02T11:51:07.620Z,7532
2016-02-02T11:52:07.607Z,8440
2016-02-02T11:53:07.594Z,9112
2016-02-02T11:54:07.566Z,9720
2016-02-02T11:55:07.537Z,9828
2016-02-02T11:56:07.524Z,9408
2016-02-02T11:57:07.480Z,8916
2016-02-02T11:58:06.766Z,8400
2016-02-02T11:59:07.285Z,8420
2016-02-02T12:00:07.413Z,8568
2016-02-02T12:01:07.400Z,8640
2016-02-02T12:02:07.372Z,8620
2016-02-02T12:03:07.342Z,8124
2016-02-02T12:04:07.334Z,7012
2016-02-02T12:05:07.321Z,6048
2016-02-02T12:06:07.292Z,6424
2016-02-02T12:07:07.264Z,6248
2016-02-02T12:08:07.236Z,6000
2016-02-02T12:09:07.208Z,5764
2016-02-02T12:10:07.194Z,6328
2016-02-02T12:11:07.167Z,5956
2016-02-02T12:12:07.154Z,6500
2016-02-02T12:13:07.125Z,6192
2016-02-02T12:14:07.097Z,5716
2016-02-02T12:15:07.115Z,7164
2016-02-02T12:16:07.055Z,8684
2016-02-02T12:17:07.043Z,8180
2016-02-02T12:18:06.999Z,6324
2016-02-02T12:19:06.986Z,7264
2016-02-02T12:20:06.957Z,7712
2016-02-02T12:21:06.927Z,7268
2016-02-02T12:22:06.916Z,6924
2016-02-02T12:23:06.888Z,6576
2016-02-02T12:24:06.875Z,6552
2016-02-02T12:25:06.846Z,6164
2016-02-02T12:26:06.817Z,5960
2016-02-02T12:27:06.805Z,5588
2016-02-02T12:28:06.777Z,5200
2016-02-02T12:29:06.758Z,4856
2016-02-02T12:30:06.746Z,4640
2016-02-02T12:31:06.702Z,4640
2016-02-02T12:32:06.689Z,4592
2016-02-02T12:33:06.675Z,4652
2016-02-02T12:34:06.630Z,4176
2016-02-02T12:35:06.619Z,4492
2016-02-02T12:36:06.606Z,4644
2016-02-02T12:37:06.577Z,4156
2016-02-02T12:38:06.548Z,4348
2016-02-02T12:39:06.535Z,4780
2016-02-02T12:40:06.491Z,5112
2016-02-02T12:41:06.479Z,5276
2016-02-02T12:42:06.468Z,5492
2016-02-02T12:43:06.423Z,5700
2016-02-02T12:44:06.409Z,5840
2016-02-02T12:45:06.382Z,6764
2016-02-02T12:46:06.353Z,6660
2016-02-02T12:47:06.340Z,5556
2016-02-02T12:48:06.327Z,4764
2016-02-02T12:49:06.298Z,3944
2016-02-02T12:50:06.263Z,3032
2016-02-02T12:51:06.223Z,2940
2016-02-02T12:52:06.185Z,2200
2016-02-02T12:53:06.177Z,2048
2016-02-02T12:54:06.123Z,1924
2016-02-02T12:55:06.089Z,1824
2016-02-02T12:56:06.055Z,1508
2016-02-02T12:57:06.039Z,1572
2016-02-02T12:58:06.006Z,1984
2016-02-02T12:59:05.990Z,2364
2016-02-02T13:00:05.965Z,2732
2016-02-02T13:01:05.951Z,2892
2016-02-02T13:02:05.906Z,2812
2016-02-02T13:03:05.907Z,2860
2016-02-02T13:04:05.862Z,2296
2016-02-02T13:05:05.912Z,2100
2016-02-02T13:06:05.820Z,2068
2016-02-02T13:07:05.806Z,2232
2016-02-02T13:08:05.763Z,2256
2016-02-02T13:09:05.733Z,2700
2016-02-02T13:10:05.735Z,2948
2016-02-02T13:11:05.707Z,3764
2016-02-02T13:12:05.662Z,3816
2016-02-02T13:13:05.637Z,3012
2016-02-02T13:14:05.623Z,2656
2016-02-02T13:15:05.579Z,2756
2016-02-02T13:16:05.567Z,3024
2016-02-02T13:17:05.570Z,3752
2016-02-02T13:18:05.526Z,4456
2016-02-02T13:19:05.528Z,4316
2016-02-02T13:20:05.472Z,4104
2016-02-02T13:21:05.444Z,4164
2016-02-02T13:22:05.430Z,4180
2016-02-02T13:23:05.402Z,3680
2016-02-02T13:24:05.376Z,3292
2016-02-02T13:25:05.191Z,2548
2016-02-02T13:26:05.335Z,2092
2016-02-02T13:27:05.291Z,1448
2016-02-02T13:28:05.294Z,1484
2016-02-02T13:29:05.249Z,1404
2016-02-02T13:30:05.223Z,1616
2016-02-02T13:31:05.210Z,1560
2016-02-02T13:32:05.182Z,1720
2016-02-02T13:33:05.154Z,1656
2016-02-02T13:34:05.140Z,1868
2016-02-02T13:35:05.097Z,1964
2016-02-02T13:36:05.084Z,1984
2016-02-02T13:37:05.055Z,1908
2016-02-02T13:38:05.042Z,1904
2016-02-02T13:39:05.046Z,1792
2016-02-02T13:40:04.986Z,1608
2016-02-02T13:41:04.957Z,1588
2016-02-02T13:42:04.960Z,1592
2016-02-02T13:43:04.932Z,1560
2016-02-02T13:44:04.888Z,1356
2016-02-02T13:45:04.875Z,1040
2016-02-02T13:46:04.847Z,764
2016-02-02T13:47:04.833Z,916
2016-02-02T13:48:04.789Z,988
2016-02-02T13:49:04.839Z,816
2016-02-02T13:50:04.735Z,1344
2016-02-02T13:51:04.707Z,1876
2016-02-02T13:52:04.694Z,1496
2016-02-02T13:53:04.680Z,1432
2016-02-02T13:54:04.652Z,1724
2016-02-02T13:55:04.641Z,1656
2016-02-02T13:56:04.596Z,1948
2016-02-02T13:57:04.568Z,2064
2016-02-02T13:58:04.545Z,1940
2016-02-02T13:59:04.548Z,1840
2016-02-02T14:00:04.504Z,1440